Time;durP1;ratioP1;P1;durP2;ratioP2;P2;SDS_P1;SDS_P2;PMS_P1;PMS_P2;Temp;Humidity;BMP_temperature;BMP_pressure;BME280_temperature;BME280_humidity;BME280_pressure;Samples;Min_cycle;Max_cycle;Signal;HPM_P1;HPM_P2
2021/06/21 00:00:15;;;;;;;11.43;8.20;;;23.10;99.90;;;;;;4348274;32;20067;-70
2021/06/21 00:02:41;;;;;;;13.98;8.88;;;23.10;99.90;;;;;;4323101;32;20077;-69
2021/06/21 00:05:09;;;;;;;12.45;9.05;;;23.10;99.90;;;;;;4347936;32;20595;-70
2021/06/21 00:07:35;;;;;;;13.65;9.13;;;23.10;99.90;;;;;;4335166;32;20472;-69
2021/06/21 00:10:04;;;;;;;11.32;9.15;;;23.30;99.90;;;;;;4323178;32;20074;-69
2021/06/21 00:12:30;;;;;;;12.30;8.90;;;23.20;99.90;;;;;;4323726;32;20589;-69
2021/06/21 00:14:56;;;;;;;13.30;8.90;;;23.10;99.90;;;;;;4347767;32;20527;-70
2021/06/21 00:17:22;;;;;;;10.48;8.65;;;22.90;99.90;;;;;;4335357;32;20146;-70
2021/06/21 00:19:49;;;;;;;13.82;9.10;;;22.90;99.90;;;;;;4347539;32;20113;-70
2021/06/21 00:22:15;;;;;;;12.80;9.07;;;22.80;99.90;;;;;;4311068;32;20082;-70
2021/06/21 00:24:43;;;;;;;13.15;8.90;;;22.80;99.90;;;;;;4335564;32;20059;-70
2021/06/21 00:27:10;;;;;;;11.40;9.23;;;22.80;99.90;;;;;;4311290;32;20187;-70
2021/06/21 00:29:36;;;;;;;13.75;8.68;;;22.80;99.90;;;;;;4335379;32;20183;-70
2021/06/21 00:32:02;;;;;;;13.85;9.55;;;22.90;99.90;;;;;;4335477;32;20101;-72
2021/06/21 00:34:28;;;;;;;12.88;9.27;;;22.80;99.90;;;;;;4323099;32;20090;-69
2021/06/21 00:36:55;;;;;;;14.35;9.30;;;22.80;99.90;;;;;;4326334;32;20063;-69
2021/06/21 00:39:21;;;;;;;11.10;8.90;;;22.80;99.90;;;;;;4338518;32;20094;-69
2021/06/21 00:41:47;;;;;;;11.48;8.95;;;22.90;99.90;;;;;;4338313;32;20089;-70
2021/06/21 00:44:13;;;;;;;12.00;8.45;;;22.90;99.90;;;;;;4350539;32;20066;-68
2021/06/21 00:46:39;;;;;;;13.13;9.13;;;22.90;99.90;;;;;;4350276;32;20155;-70
2021/06/21 00:49:06;;;;;;;11.88;9.02;;;22.90;99.90;;;;;;4350824;32;20093;-69
2021/06/21 00:51:32;;;;;;;10.63;8.27;;;23.10;99.90;;;;;;4325873;32;20453;-70
2021/06/21 00:53:59;;;;;;;12.80;9.00;;;23.10;99.90;;;;;;4338091;32;20059;-70
2021/06/21 00:56:25;;;;;;;13.57;9.00;;;23.10;99.90;;;;;;4325393;32;20586;-69
2021/06/21 00:58:53;;;;;;;9.73;8.43;;;23.10;99.90;;;;;;4350626;32;20085;-70
2021/06/21 01:01:19;;;;;;;14.93;9.07;;;23.20;99.90;;;;;;4338215;32;20105;-68
2021/06/21 01:03:45;;;;;;;11.32;8.70;;;23.20;99.90;;;;;;4338089;32;20071;-70
2021/06/21 01:06:12;;;;;;;12.55;8.93;;;23.10;99.90;;;;;;4325310;32;20085;-70
2021/06/21 01:08:38;;;;;;;11.63;8.32;;;23.10;99.90;;;;;;4349724;32;20501;-70
2021/06/21 01:11:04;;;;;;;10.48;8.35;;;23.20;99.90;;;;;;4363765;32;20065;-69
2021/06/21 01:13:42;;;;;;;11.68;8.10;;;23.40;99.90;;;;;;4337443;32;20089;-68
2021/06/21 01:16:26;;;;;;;10.77;8.63;;;23.30;99.90;;;;;;4350093;32;20078;-70
2021/06/21 01:19:43;;;;;;;9.52;8.27;;;23.40;99.90;;;;;;4302799;32;20075;-69
2021/06/21 01:22:48;;;;;;;10.40;9.20;;;23.40;99.90;;;;;;4338057;32;20062;-70
2021/06/21 01:25:26;;;;;;;13.85;9.13;;;23.40;99.90;;;;;;4352690;32;20141;-69
2021/06/21 01:28:05;;;;;;;12.60;9.65;;;23.50;99.90;;;;;;4326998;32;20115;-70
2021/06/21 01:31:15;;;;;;;10.93;8.70;;;23.60;99.90;;;;;;4337631;32;20169;-71
2021/06/21 01:33:41;;;;;;;10.57;8.77;;;23.50;99.90;;;;;;4342128;32;20593;-70
2021/06/21 01:36:09;;;;;;;11.55;8.52;;;23.50;99.90;;;;;;4322356;33;20159;-69
2021/06/21 01:38:42;;;;;;;12.57;9.23;;;23.60;99.90;;;;;;4298944;33;20105;-69
2021/06/21 01:41:15;;;;;;;10.93;8.60;;;23.60;99.90;;;;;;4311153;33;20075;-69
2021/06/21 01:43:43;;;;;;;10.55;8.93;;;23.70;99.90;;;;;;4323639;33;20075;-69
2021/06/21 01:46:11;;;;;;;11.98;9.48;;;23.70;99.90;;;;;;4322931;33;20085;-69
2021/06/21 01:48:41;;;;;;;12.43;9.93;;;23.70;99.90;;;;;;4322990;33;20063;-70
2021/06/21 01:51:07;;;;;;;12.85;9.77;;;23.80;99.90;;;;;;4322969;33;20168;-70
2021/06/21 01:53:34;;;;;;;11.75;9.68;;;23.80;99.90;;;;;;4348057;33;20145;-69
2021/06/21 01:56:11;;;;;;;14.73;9.60;;;23.90;99.90;;;;;;4334621;33;20078;-69
2021/06/21 01:58:38;;;;;;;12.52;10.45;;;23.80;99.90;;;;;;4322609;33;20070;-70
2021/06/21 02:01:14;;;;;;;14.65;10.15;;;23.80;99.90;;;;;;4310269;33;20071;-69
2021/06/21 02:03:49;;;;;;;13.23;10.48;;;23.80;99.90;;;;;;4323743;33;20077;-70
2021/06/21 02:06:16;;;;;;;16.05;10.02;;;23.90;99.90;;;;;;4334278;32;20144;-69
2021/06/21 02:10:22;;;;;;;11.65;9.90;;;23.90;99.90;;;;;;3834312;37;20077;-71
2021/06/21 02:12:48;;;;;;;11.27;9.48;;;23.90;99.90;;;;;;4366935;32;20069;-69
2021/06/21 02:15:15;;;;;;;13.18;9.15;;;23.90;99.90;;;;;;4366462;32;20076;-70
2021/06/21 02:17:41;;;;;;;11.75;8.52;;;24.00;99.90;;;;;;4390648;32;20161;-69
2021/06/21 02:20:08;;;;;;;10.65;7.80;;;24.00;99.90;;;;;;4365812;32;20081;-69
2021/06/21 02:22:34;;;;;;;10.27;9.27;;;24.20;99.90;;;;;;4365632;32;20076;-71
2021/06/21 02:25:05;;;;;;;10.38;6.90;;;24.30;99.90;;;;;;4366008;32;20181;-70
2021/06/21 02:27:31;;;;;;;7.72;6.28;;;24.40;99.90;;;;;;4365933;32;20444;-69
2021/06/21 02:29:58;;;;;;;9.13;6.78;;;24.50;99.90;;;;;;4365524;32;20165;-70
2021/06/21 02:32:24;;;;;;;9.27;7.60;;;24.60;99.90;;;;;;4365438;32;20081;-69
2021/06/21 02:34:52;;;;;;;8.95;7.65;;;24.70;99.90;;;;;;4350793;32;20089;-69
2021/06/21 02:37:18;;;;;;;10.10;7.22;;;24.80;99.90;;;;;;4350307;32;20086;-69
2021/06/21 02:39:44;;;;;;;9.50;6.90;;;24.80;99.90;;;;;;4363205;32;20501;-69
2021/06/21 02:42:11;;;;;;;8.75;7.85;;;24.90;99.90;;;;;;4362915;32;20092;-70
2021/06/21 02:44:37;;;;;;;9.25;7.43;;;25.00;99.90;;;;;;4363404;32;20077;-69
2021/06/21 02:47:04;;;;;;;9.35;6.37;;;25.00;99.90;;;;;;4362692;32;20147;-69
2021/06/21 02:49:30;;;;;;;9.40;6.37;;;25.00;99.90;;;;;;4363049;32;20069;-69
2021/06/21 02:52:14;;;;;;;8.20;6.25;;;25.00;99.90;;;;;;4349929;32;20593;-70
2021/06/21 02:55:19;;;;;;;11.05;7.97;;;25.10;99.90;;;;;;4351910;32;20597;-69
2021/06/21 02:58:06;;;;;;;8.77;7.22;;;25.10;99.80;;;;;;4360083;32;20067;-69
2021/06/21 03:00:32;;;;;;;10.65;6.72;;;25.20;98.90;;;;;;4360225;32;20079;-69
2021/06/21 03:02:59;;;;;;;10.00;7.28;;;25.20;99.60;;;;;;4347676;32;20497;-70
2021/06/21 03:05:26;;;;;;;9.90;6.90;;;25.20;98.80;;;;;;4342328;32;20137;-69
2021/06/21 03:07:52;;;;;;;7.28;6.50;;;25.20;97.60;;;;;;4362468;32;20084;-71
2021/06/21 03:10:19;;;;;;;9.77;7.25;;;25.30;97.20;;;;;;4362563;32;20493;-70
2021/06/21 03:12:46;;;;;;;11.90;7.40;;;25.40;97.20;;;;;;4337762;32;20074;-70
2021/06/21 03:15:15;;;;;;;12.70;7.78;;;25.40;96.50;;;;;;4350284;32;20464;-71
2021/06/21 03:17:41;;;;;;;9.88;7.18;;;25.50;95.20;;;;;;4347593;32;20166;-69
2021/06/21 03:20:08;;;;;;;8.25;6.70;;;25.60;94.30;;;;;;4344248;32;20521;-70
2021/06/21 03:22:37;;;;;;;7.10;6.30;;;25.60;92.10;;;;;;4350082;32;20090;-70
2021/06/21 03:25:03;;;;;;;7.78;6.80;;;25.70;90.90;;;;;;4337459;32;20093;-71
2021/06/21 03:27:31;;;;;;;8.95;6.20;;;25.70;88.40;;;;;;4337861;32;20195;-69
2021/06/21 03:29:58;;;;;;;11.15;6.87;;;25.70;86.60;;;;;;4350300;32;20155;-69
2021/06/21 03:32:35;;;;;;;7.20;6.40;;;25.70;83.70;;;;;;4337644;32;20063;-70
2021/06/21 03:35:03;;;;;;;8.52;6.20;;;25.80;81.90;;;;;;4342749;32;20078;-69
2021/06/21 03:37:30;;;;;;;8.65;6.95;;;25.90;79.70;;;;;;4367431;32;20089;-71
2021/06/21 03:39:57;;;;;;;8.15;6.43;;;25.80;76.80;;;;;;4352648;32;20062;-70
2021/06/21 03:42:23;;;;;;;10.27;6.95;;;25.90;75.30;;;;;;4353102;32;20078;-69
2021/06/21 03:44:50;;;;;;;9.55;6.40;;;26.00;75.10;;;;;;4353359;32;20085;-70
2021/06/21 03:47:16;;;;;;;9.88;6.55;;;26.00;72.80;;;;;;4339841;32;20497;-70
2021/06/21 03:49:46;;;;;;;7.65;6.30;;;26.00;71.80;;;;;;4351791;32;20062;-69
2021/06/21 03:52:13;;;;;;;7.53;6.35;;;26.10;70.20;;;;;;4327417;32;20077;-70
2021/06/21 03:56:17;;;;;;;6.72;5.90;;;26.10;67.10;;;;;;3823482;37;20047;-69
2021/06/21 03:58:45;;;;;;;8.65;6.65;;;26.10;66.20;;;;;;4350852;32;20493;-70
2021/06/21 04:01:12;;;;;;;9.23;6.35;;;26.20;65.20;;;;;;4363722;32;20149;-70
2021/06/21 04:03:39;;;;;;;6.65;5.85;;;26.20;64.00;;;;;;4351002;32;20084;-69
2021/06/21 04:06:05;;;;;;;7.75;6.28;;;26.20;63.30;;;;;;4362841;32;20085;-70
2021/06/21 04:08:31;;;;;;;6.53;5.78;;;26.20;63.10;;;;;;4362848;32;20517;-69
2021/06/21 04:10:57;;;;;;;7.00;6.12;;;26.20;62.20;;;;;;4362617;32;20072;-69
2021/06/21 04:13:26;;;;;;;9.18;6.60;;;26.40;62.30;;;;;;4375478;32;20141;-70
2021/06/21 04:15:52;;;;;;;8.68;6.05;;;26.50;62.50;;;;;;4375940;32;20061;-70
2021/06/21 04:18:18;;;;;;;8.00;6.22;;;26.50;61.40;;;;;;4362783;32;20062;-70
2021/06/21 04:20:45;;;;;;;8.57;5.85;;;26.70;61.20;;;;;;4363054;32;20078;-70
2021/06/21 04:23:12;;;;;;;7.30;5.72;;;26.60;58.80;;;;;;4350604;32;20073;-70
2021/06/21 04:25:38;;;;;;;7.82;6.10;;;26.70;59.10;;;;;;4350286;32;20069;-70
2021/06/21 04:28:06;;;;;;;6.97;6.07;;;26.70;58.60;;;;;;4350683;32;20212;-70
2021/06/21 04:30:32;;;;;;;8.73;6.12;;;27.50;55.70;;;;;;4350703;32;20072;-70
2021/06/21 04:32:58;;;;;;;13.32;5.87;;;29.20;48.40;;;;;;4362705;32;20522;-69
2021/06/21 04:35:25;;;;;;;12.23;6.32;;;29.40;45.60;;;;;;4375107;32;20082;-70
2021/06/21 04:37:53;;;;;;;7.65;6.40;;;29.30;45.90;;;;;;4374872;32;20512;-70
2021/06/21 04:40:28;;;;;;;11.35;6.18;;;29.30;45.50;;;;;;4362707;32;20090;-70
2021/06/21 04:42:54;;;;;;;7.28;6.00;;;29.20;44.60;;;;;;4351322;32;20062;-70
2021/06/21 04:45:21;;;;;;;7.78;5.25;;;29.70;44.00;;;;;;4362788;32;20076;-70
2021/06/21 04:47:47;;;;;;;8.88;6.22;;;30.00;41.90;;;;;;4362553;32;20074;-70
2021/06/21 04:50:15;;;;;;;8.07;5.60;;;31.00;40.10;;;;;;4362933;32;20098;-69
2021/06/21 04:52:42;;;;;;;8.40;5.55;;;30.00;40.70;;;;;;4350545;32;20500;-70
2021/06/21 04:55:10;;;;;;;6.10;5.50;;;30.30;41.30;;;;;;4362217;32;20074;-70
2021/06/21 04:57:36;;;;;;;6.37;5.37;;;30.90;39.80;;;;;;4338219;32;20511;-69
2021/06/21 05:00:09;;;;;;;8.60;5.53;;;30.30;39.60;;;;;;4362230;32;20150;-70
2021/06/21 05:02:35;;;;;;;8.27;6.00;;;29.90;40.80;;;;;;4362762;32;20066;-70
2021/06/21 05:05:01;;;;;;;8.27;5.70;;;29.50;42.20;;;;;;4357109;32;20076;-71
2021/06/21 05:07:27;;;;;;;7.22;6.18;;;29.50;42.20;;;;;;4337999;32;20200;-70
2021/06/21 05:09:53;;;;;;;7.32;6.35;;;29.50;42.70;;;;;;4337984;32;20075;-65
2021/06/21 05:12:20;;;;;;;7.75;5.85;;;29.50;42.80;;;;;;4325374;32;20089;-68
2021/06/21 05:14:46;;;;;;;9.60;6.72;;;30.00;42.70;;;;;;4337213;32;20525;-69
2021/06/21 05:17:12;;;;;;;9.10;6.32;;;29.90;43.00;;;;;;4325353;32;20141;-69
2021/06/21 05:19:39;;;;;;;7.47;6.25;;;30.20;42.70;;;;;;4325250;32;20646;-69
2021/06/21 05:22:05;;;;;;;7.35;6.60;;;30.00;43.60;;;;;;4325011;32;20159;-70
2021/06/21 05:24:32;;;;;;;11.00;6.65;;;29.50;44.40;;;;;;4313289;32;20478;-69
2021/06/21 05:26:59;;;;;;;7.57;6.65;;;30.50;43.60;;;;;;4324650;32;20157;-69
2021/06/21 05:29:25;;;;;;;8.23;6.65;;;31.20;40.60;;;;;;4324625;32;20074;-69
2021/06/21 05:31:51;;;;;;;8.35;6.40;;;31.60;40.80;;;;;;4349901;32;20174;-70
2021/06/21 05:34:17;;;;;;;8.57;6.97;;;31.20;40.90;;;;;;4313734;32;20066;-70
2021/06/21 05:36:44;;;;;;;7.97;7.03;;;31.00;43.40;;;;;;4369773;32;20077;-69
2021/06/21 05:39:10;;;;;;;8.93;6.97;;;31.10;41.80;;;;;;4337253;32;20093;-69
2021/06/21 05:41:36;;;;;;;8.38;6.95;;;31.60;41.70;;;;;;4349291;32;20069;-70
2021/06/21 05:44:03;;;;;;;8.13;6.78;;;31.40;41.80;;;;;;4324766;32;20148;-70
2021/06/21 05:46:30;;;;;;;9.18;7.05;;;32.00;41.20;;;;;;4324969;32;20171;-70
2021/06/21 05:48:56;;;;;;;10.02;7.05;;;30.80;43.20;;;;;;4324570;32;20551;-70
2021/06/21 05:51:22;;;;;;;7.80;7.00;;;31.00;43.70;;;;;;4336991;32;20515;-71
2021/06/21 05:53:48;;;;;;;8.30;7.03;;;30.50;44.70;;;;;;4349413;32;20070;-72
2021/06/21 05:56:14;;;;;;;8.68;6.97;;;30.80;44.90;;;;;;4349368;32;20168;-71
2021/06/21 05:58:41;;;;;;;9.55;7.05;;;31.80;43.00;;;;;;4324611;32;20521;-70
2021/06/21 06:01:07;;;;;;;12.45;7.37;;;32.00;41.80;;;;;;4312137;32;20134;-70
2021/06/21 06:03:34;;;;;;;8.90;8.00;;;32.20;42.00;;;;;;4324483;32;20071;-70
2021/06/21 06:06:01;;;;;;;11.73;7.43;;;31.30;43.20;;;;;;4324786;32;20494;-69
2021/06/21 06:08:28;;;;;;;9.18;7.43;;;31.20;45.00;;;;;;4313154;32;20079;-70
2021/06/21 06:10:54;;;;;;;8.30;7.40;;;30.90;46.10;;;;;;4312236;32;20058;-70
2021/06/21 06:13:20;;;;;;;9.52;7.80;;;31.20;44.80;;;;;;4324347;32;20070;-70
2021/06/21 06:15:47;;;;;;;10.77;7.53;;;32.00;42.80;;;;;;4312407;32;20143;-69
2021/06/21 06:18:13;;;;;;;11.02;7.40;;;31.60;43.10;;;;;;4348842;32;20126;-70
2021/06/21 06:20:39;;;;;;;7.85;7.00;;;32.40;42.60;;;;;;4326248;32;20058;-70
2021/06/21 06:23:05;;;;;;;8.95;7.72;;;32.30;41.50;;;;;;4348882;32;20524;-70
2021/06/21 06:25:32;;;;;;;10.35;7.85;;;31.90;43.20;;;;;;4348425;32;20065;-71
2021/06/21 06:27:59;;;;;;;10.27;7.10;;;31.30;44.10;;;;;;4324413;32;20157;-70
2021/06/21 06:30:25;;;;;;;9.43;7.68;;;31.40;45.00;;;;;;4336424;32;20151;-70
2021/06/21 06:32:52;;;;;;;8.77;7.32;;;31.40;45.10;;;;;;4324571;32;20169;-70
2021/06/21 06:35:18;;;;;;;7.65;6.82;;;30.80;48.10;;;;;;4319015;32;20062;-70
2021/06/21 06:37:45;;;;;;;10.15;8.15;;;30.80;47.60;;;;;;4336700;32;20093;-70
2021/06/21 06:40:12;;;;;;;8.68;7.70;;;30.50;49.70;;;;;;4348449;32;20074;-70
2021/06/21 06:42:39;;;;;;;9.55;7.72;;;30.50;48.20;;;;;;4348248;32;20156;-70
2021/06/21 06:45:06;;;;;;;10.27;7.40;;;31.20;48.10;;;;;;4348479;32;20059;-70
2021/06/21 06:47:32;;;;;;;8.55;7.65;;;30.70;47.00;;;;;;4348157;32;20453;-70
2021/06/21 06:49:58;;;;;;;8.02;7.22;;;30.40;48.30;;;;;;4348209;32;20555;-70
2021/06/21 06:52:25;;;;;;;9.30;7.68;;;30.40;50.70;;;;;;4336476;32;20090;-70
2021/06/21 06:57:38;;;;;;;10.77;8.02;;;31.10;49.40;;;;;;4337555;32;20164;-70
2021/06/21 07:00:07;;;;;;;9.05;8.15;;;31.20;48.00;;;;;;4336435;32;20066;-70
2021/06/21 07:02:33;;;;;;;9.88;7.32;;;30.80;49.50;;;;;;4335446;32;20496;-69
2021/06/21 07:05:11;;;;;;;9.88;7.87;;;31.30;50.60;;;;;;4337718;32;20086;-69
2021/06/21 07:07:37;;;;;;;9.10;7.12;;;30.70;48.60;;;;;;4324883;32;20060;-70
2021/06/21 07:10:05;;;;;;;8.40;7.60;;;31.00;47.60;;;;;;4335862;32;20076;-71
2021/06/21 07:12:31;;;;;;;10.00;8.18;;;30.80;48.80;;;;;;4324050;32;20059;-70
2021/06/21 07:14:57;;;;;;;11.98;8.50;;;30.70;50.20;;;;;;4335707;32;20074;-70
2021/06/21 07:17:24;;;;;;;9.00;8.07;;;30.60;52.40;;;;;;4349584;32;20502;-70
2021/06/21 07:19:50;;;;;;;11.45;8.15;;;31.20;49.80;;;;;;4338958;32;20080;-70
2021/06/21 07:22:16;;;;;;;8.63;7.30;;;31.50;48.30;;;;;;4323646;32;20079;-71
2021/06/21 07:24:42;;;;;;;13.88;7.87;;;30.80;48.50;;;;;;4322877;32;20559;-71
2021/06/21 07:27:09;;;;;;;9.00;7.62;;;31.00;49.40;;;;;;4323708;32;20082;-71
2021/06/21 07:29:35;;;;;;;9.05;8.05;;;30.60;50.10;;;;;;4310797;32;20166;-70
2021/06/21 07:32:01;;;;;;;9.38;7.95;;;30.60;49.70;;;;;;4347802;32;20081;-71
2021/06/21 07:34:27;;;;;;;9.15;7.82;;;30.60;49.20;;;;;;4337371;32;20121;-67
2021/06/21 07:36:53;;;;;;;8.13;7.32;;;30.40;48.90;;;;;;4354326;32;20066;-68
2021/06/21 07:39:20;;;;;;;8.70;7.78;;;30.30;49.70;;;;;;4323159;32;20453;-71
2021/06/21 07:41:47;;;;;;;7.82;7.03;;;30.60;47.90;;;;;;4335601;32;20071;-70
2021/06/21 07:44:14;;;;;;;10.48;7.70;;;30.40;48.70;;;;;;4323503;32;20092;-70
2021/06/21 07:46:40;;;;;;;9.15;8.23;;;30.80;48.90;;;;;;4335482;32;20074;-70
2021/06/21 07:49:06;;;;;;;7.93;6.50;;;30.40;48.80;;;;;;4341784;32;20449;-70
2021/06/21 07:51:38;;;;;;;7.57;6.78;;;30.60;50.10;;;;;;4335321;32;20074;-70
2021/06/21 07:54:04;;;;;;;7.90;7.10;;;31.00;46.00;;;;;;4345797;32;20121;-69
2021/06/21 07:56:30;;;;;;;8.50;7.55;;;31.10;45.60;;;;;;4332513;32;20081;-68
2021/06/21 07:58:57;;;;;;;7.37;6.65;;;31.10;46.80;;;;;;4342240;32;20078;-70
2021/06/21 08:01:24;;;;;;;8.48;6.20;;;30.80;45.00;;;;;;4347611;32;20481;-75
2021/06/21 08:03:52;;;;;;;6.60;5.78;;;31.00;41.90;;;;;;4334577;32;20074;-72
2021/06/21 08:06:18;;;;;;;8.07;6.32;;;31.20;43.80;;;;;;4346651;32;20074;-71
2021/06/21 08:08:44;;;;;;;7.22;6.53;;;31.30;43.90;;;;;;4349181;32;20145;-73
2021/06/21 08:11:11;;;;;;;7.50;6.62;;;31.80;41.80;;;;;;4349461;32;20066;-73
2021/06/21 08:13:38;;;;;;;8.48;6.90;;;31.60;42.50;;;;;;4349734;32;20511;-66
2021/06/21 08:16:05;;;;;;;7.43;6.68;;;31.00;44.80;;;;;;4348164;32;20067;-67
2021/06/21 08:18:31;;;;;;;10.70;7.07;;;30.80;43.50;;;;;;4334826;32;20066;-69
2021/06/21 08:20:58;;;;;;;9.43;6.35;;;31.90;42.00;;;;;;4346293;32;20059;-73
2021/06/21 08:23:25;;;;;;;11.02;6.45;;;31.90;42.70;;;;;;4349062;32;20572;-74
2021/06/21 08:25:51;;;;;;;7.75;6.62;;;31.20;42.50;;;;;;4337729;32;20110;-73
2021/06/21 08:28:17;;;;;;;9.18;6.57;;;31.00;41.80;;;;;;4325336;32;20076;-75
2021/06/21 08:30:46;;;;;;;10.70;6.80;;;30.80;40.20;;;;;;4348771;32;20093;-77
2021/06/21 08:33:12;;;;;;;8.45;6.80;;;30.80;41.80;;;;;;4343091;32;20463;-72
2021/06/21 08:35:39;;;;;;;9.55;7.45;;;31.30;41.20;;;;;;4335551;32;20121;-71
2021/06/21 08:38:06;;;;;;;7.53;6.37;;;31.50;39.60;;;;;;4343458;32;20467;-72
2021/06/21 08:40:34;;;;;;;8.48;7.25;;;31.20;38.70;;;;;;4348296;32;20144;-74
2021/06/21 08:43:02;;;;;;;7.72;6.93;;;31.60;39.90;;;;;;4349765;32;20082;-73
2021/06/21 08:45:30;;;;;;;9.07;7.35;;;31.50;40.30;;;;;;4328897;32;20066;-73
2021/06/21 08:47:58;;;;;;;7.75;6.45;;;30.90;40.10;;;;;;4321811;32;20067;-75
2021/06/21 08:50:25;;;;;;;7.45;6.57;;;31.30;39.70;;;;;;4350872;32;20093;-69
2021/06/21 08:52:52;;;;;;;8.43;6.60;;;31.20;38.50;;;;;;4339750;32;20505;-64
2021/06/21 08:55:18;;;;;;;9.05;5.93;;;31.70;40.10;;;;;;4350905;32;20079;-65
2021/06/21 08:57:46;;;;;;;11.05;5.70;;;32.30;34.30;;;;;;4325194;32;20497;-66
2021/06/21 09:00:15;;;;;;;6.32;5.72;;;31.70;33.80;;;;;;4338516;32;20438;-65
2021/06/21 09:02:41;;;;;;;7.03;5.62;;;31.50;33.30;;;;;;4332324;32;20070;-67
2021/06/21 09:05:09;;;;;;;9.57;6.10;;;31.90;34.90;;;;;;4351133;32;20069;-69
2021/06/21 09:07:36;;;;;;;9.90;6.15;;;31.50;34.90;;;;;;4341449;32;20085;-68
2021/06/21 09:10:08;;;;;;;8.80;6.93;;;31.60;35.50;;;;;;4310450;32;20082;-68
2021/06/21 09:12:35;;;;;;;13.02;6.78;;;32.00;35.90;;;;;;4340762;32;20078;-69
2021/06/21 09:15:07;;;;;;;8.32;6.70;;;32.00;35.20;;;;;;4339780;32;20067;-67
2021/06/21 09:17:37;;;;;;;8.45;6.87;;;31.50;35.80;;;;;;4339227;32;20057;-69
2021/06/21 09:20:09;;;;;;;8.50;7.47;;;31.90;34.90;;;;;;4352790;32;20174;-74
2021/06/21 09:22:40;;;;;;;7.00;6.30;;;31.70;35.90;;;;;;4338107;32;20139;-74
2021/06/21 09:25:20;;;;;;;8.13;6.80;;;32.40;35.00;;;;;;4337897;32;20145;-68
2021/06/21 09:28:01;;;;;;;9.43;7.12;;;32.00;35.40;;;;;;4350664;32;20472;-69
2021/06/21 09:30:28;;;;;;;11.38;7.43;;;32.60;35.10;;;;;;4338914;32;20069;-71
2021/06/21 09:32:59;;;;;;;6.62;5.85;;;32.60;35.70;;;;;;4339089;32;20069;-72
2021/06/21 09:35:29;;;;;;;10.75;7.37;;;32.50;35.30;;;;;;4339444;32;20486;-72
2021/06/21 09:38:03;;;;;;;7.18;6.32;;;32.50;36.30;;;;;;4357018;32;20085;-74
2021/06/21 09:40:35;;;;;;;8.68;7.53;;;32.40;36.40;;;;;;4362129;32;20106;-78
2021/06/21 09:43:41;;;;;;;9.80;7.10;;;32.50;35.80;;;;;;4368660;32;20158;-71
2021/06/21 09:46:19;;;;;;;10.70;7.43;;;32.40;35.30;;;;;;4332095;32;20431;-75
2021/06/21 09:48:54;;;;;;;10.13;6.80;;;32.20;35.80;;;;;;4327458;32;20090;-75
2021/06/21 09:51:32;;;;;;;12.52;8.00;;;32.20;36.20;;;;;;4361753;32;20062;-76
2021/06/21 09:54:07;;;;;;;8.90;7.70;;;31.50;38.80;;;;;;4336148;32;20121;-73
2021/06/21 09:56:52;;;;;;;10.20;8.40;;;31.40;38.20;;;;;;4349582;32;20078;-72
2021/06/21 09:59:24;;;;;;;16.52;8.65;;;31.90;38.90;;;;;;4364669;32;20085;-69
2021/06/21 10:02:17;;;;;;;10.70;8.25;;;32.30;37.10;;;;;;4354441;32;20691;-74
2021/06/21 10:04:45;;;;;;;13.13;8.23;;;31.80;39.00;;;;;;4357008;32;20077;-72
2021/06/21 10:07:31;;;;;;;9.57;8.50;;;31.70;38.90;;;;;;4344769;32;20096;-69
2021/06/21 10:10:08;;;;;;;;;;;31.80;38.10;;;;;;4332661;32;20159;-67
2021/06/21 10:12:35;;;;;;;;;;;32.50;36.70;;;;;;4347343;32;20005;-67
2021/06/21 10:15:02;;;;;;;11.80;7.80;;;32.10;34.70;;;;;;4344649;32;19974;-73
2021/06/21 10:17:29;;;;;;;8.85;7.75;;;32.60;34.90;;;;;;4347129;32;20099;-68
2021/06/21 10:19:55;;;;;;;8.57;7.72;;;33.00;35.80;;;;;;4357288;32;20116;-67
2021/06/21 10:22:23;;;;;;;8.10;7.30;;;31.90;34.50;;;;;;4361803;32;20159;-66
2021/06/21 10:24:51;;;;;;;7.50;6.53;;;32.50;34.50;;;;;;4337182;32;20118;-68
2021/06/21 10:27:21;;;;;;;9.88;7.05;;;32.00;34.50;;;;;;4324583;32;20173;-67
2021/06/21 10:29:47;;;;;;;6.80;6.15;;;31.90;35.40;;;;;;4350022;32;20062;-69
2021/06/21 10:32:14;;;;;;;10.57;6.90;;;32.00;33.80;;;;;;4318767;32;20076;-67
2021/06/21 10:34:41;;;;;;;7.82;6.87;;;32.40;33.60;;;;;;4336063;32;20104;-70
2021/06/21 10:37:25;;;;;;;7.55;6.68;;;32.20;34.20;;;;;;4333059;32;20122;-74
2021/06/21 10:39:59;;;;;;;9.55;6.82;;;32.00;34.70;;;;;;4344751;32;20082;-67
2021/06/21 10:42:34;;;;;;;7.50;6.62;;;32.50;34.20;;;;;;4344394;32;20508;-71
2021/06/21 10:45:01;;;;;;;7.53;6.82;;;32.10;34.90;;;;;;4320767;32;20090;-72
2021/06/21 10:47:42;;;;;;;7.28;6.28;;;32.40;33.20;;;;;;4342809;32;20098;-67
2021/06/21 10:50:19;;;;;;;8.90;6.82;;;32.50;33.60;;;;;;4319608;32;20116;-67
2021/06/21 10:52:49;;;;;;;7.53;6.75;;;32.60;32.80;;;;;;4368226;32;20121;-71
2021/06/21 10:55:26;;;;;;;9.48;7.15;;;32.90;34.00;;;;;;4361665;32;20067;-66
2021/06/21 10:57:53;;;;;;;9.23;6.45;;;33.40;32.20;;;;;;4361260;32;20074;-67
2021/06/21 11:00:22;;;;;;;8.85;6.57;;;32.50;32.60;;;;;;4341728;32;20084;-67
2021/06/21 11:02:48;;;;;;;7.95;6.57;;;32.70;34.40;;;;;;4333053;32;20074;-65
2021/06/21 11:05:37;;;;;;;8.25;6.72;;;32.80;32.90;;;;;;4341406;32;20419;-65
2021/06/21 11:08:45;;;;;;;7.78;6.72;;;32.80;33.30;;;;;;4337181;32;20070;-68
2021/06/21 11:11:34;;;;;;;9.35;6.72;;;32.80;33.30;;;;;;4348462;32;20062;-72
2021/06/21 11:14:25;;;;;;;7.10;6.40;;;32.40;33.40;;;;;;4350211;32;20532;-70
2021/06/21 11:17:19;;;;;;;9.25;6.65;;;32.40;33.50;;;;;;4358981;32;20081;-69
2021/06/21 11:19:45;;;;;;;8.77;6.45;;;32.90;33.00;;;;;;4347418;32;20176;-68
2021/06/21 11:22:12;;;;;;;7.68;6.78;;;32.80;33.10;;;;;;4350186;32;20456;-71
2021/06/21 11:24:39;;;;;;;7.43;6.25;;;32.40;33.00;;;;;;4338525;32;20082;-69
2021/06/21 11:27:12;;;;;;;8.05;6.25;;;33.20;34.00;;;;;;4354937;32;20101;-69
2021/06/21 11:29:41;;;;;;;6.95;6.15;;;32.70;33.60;;;;;;4353648;32;20866;-73
2021/06/21 11:32:08;;;;;;;7.87;6.10;;;32.90;33.40;;;;;;4330431;32;20062;-74
2021/06/21 11:35:00;;;;;;;7.20;6.30;;;33.00;33.90;;;;;;4349559;32;20139;-76
2021/06/21 11:37:40;;;;;;;7.10;6.10;;;32.80;33.70;;;;;;4342232;32;20109;-73
2021/06/21 11:40:18;;;;;;;7.57;6.25;;;33.60;33.50;;;;;;4347708;32;20613;-71
2021/06/21 11:43:43;;;;;;;8.98;6.90;;;33.40;31.60;;;;;;4366929;32;20086;-71
2021/06/21 11:46:10;;;;;;;7.30;6.45;;;33.80;31.50;;;;;;4313405;32;20274;-70
2021/06/21 11:48:38;;;;;;;7.25;6.55;;;33.20;32.80;;;;;;4331750;32;20149;-69
2021/06/21 11:51:14;;;;;;;7.25;6.50;;;32.80;33.40;;;;;;4330264;32;20089;-70
2021/06/21 11:53:48;;;;;;;7.35;6.20;;;32.60;33.40;;;;;;4343571;32;20067;-71
2021/06/21 11:56:15;;;;;;;7.37;6.50;;;32.80;33.40;;;;;;4324533;32;20101;-71
2021/06/21 11:58:48;;;;;;;7.35;6.57;;;33.10;33.30;;;;;;4340601;32;20094;-74
2021/06/21 12:01:24;;;;;;;7.47;6.78;;;33.10;32.50;;;;;;4333211;32;20066;-76
2021/06/21 12:03:59;;;;;;;7.50;6.75;;;32.80;33.50;;;;;;4341821;32;20105;-71
2021/06/21 12:06:27;;;;;;;8.30;6.53;;;33.30;33.20;;;;;;4357918;32;20086;-74
2021/06/21 12:08:53;;;;;;;8.52;6.45;;;33.30;32.20;;;;;;4350015;32;20191;-72
2021/06/21 12:11:27;;;;;;;6.97;6.32;;;33.40;32.00;;;;;;4350607;32;20102;-70
2021/06/21 12:14:13;;;;;;;7.65;6.57;;;33.40;32.80;;;;;;4345911;32;20073;-70
2021/06/21 12:16:42;;;;;;;7.35;6.62;;;33.10;32.90;;;;;;4332445;32;20093;-69
2021/06/21 12:19:09;;;;;;;8.10;7.05;;;32.70;33.10;;;;;;4360456;32;20074;-68
2021/06/21 12:21:45;;;;;;;9.48;6.20;;;33.10;32.90;;;;;;4349254;32;20542;-69
2021/06/21 12:24:28;;;;;;;6.75;6.15;;;33.20;32.10;;;;;;4350368;32;20159;-71
2021/06/21 12:26:57;;;;;;;8.57;6.40;;;33.10;33.30;;;;;;4329452;32;20511;-69
2021/06/21 12:29:30;;;;;;;7.05;6.35;;;33.20;32.70;;;;;;4346577;32;20161;-71
2021/06/21 12:32:05;;;;;;;6.75;6.15;;;33.50;32.00;;;;;;4322946;32;20501;-70
2021/06/21 12:34:41;;;;;;;;;;;33.30;33.00;;;;;;4356640;32;20090;-69
2021/06/21 12:37:35;;;;;;;6.55;5.95;;;33.40;31.50;;;;;;4339451;32;19977;-68
2021/06/21 12:40:22;;;;;;;6.85;6.12;;;33.60;31.20;;;;;;4340264;32;20067;-68
2021/06/21 12:42:48;;;;;;;6.93;6.22;;;33.60;31.60;;;;;;4358558;32;20570;-66
2021/06/21 12:45:24;;;;;;;7.43;6.12;;;33.90;32.40;;;;;;4360163;32;20441;-64
2021/06/21 12:47:55;;;;;;;7.43;6.72;;;33.30;32.00;;;;;;4349822;32;20124;-66
2021/06/21 12:50:24;;;;;;;9.63;7.87;;;33.60;31.60;;;;;;4350057;32;20102;-67
2021/06/21 12:52:51;;;;;;;7.18;6.47;;;33.40;31.70;;;;;;4322546;32;20066;-73
2021/06/21 12:55:29;;;;;;;6.75;6.05;;;33.00;32.50;;;;;;4347003;32;20661;-70
2021/06/21 12:58:06;;;;;;;7.28;6.07;;;32.80;32.50;;;;;;4338631;32;20159;-68
2021/06/21 13:00:49;;;;;;;7.15;6.45;;;33.00;32.80;;;;;;4349051;32;20534;-69
2021/06/21 13:03:22;;;;;;;7.85;6.53;;;33.00;32.60;;;;;;4356777;32;20094;-76